sensor_id;sensor_type;location;lat;lon;timestamp;P1;durP1;ratioP1;P2;durP2;ratioP2
19213;SDS011;9741;51.020;5.304;2023-05-14T00:01:23;0.93;;;0.93;;
19213;SDS011;9741;51.020;5.304;2023-05-14T00:03:50;1.03;;;1.03;;
19213;SDS011;9741;51.020;5.304;2023-05-14T00:06:17;1.53;;;1.27;;
19213;SDS011;9741;51.020;5.304;2023-05-14T00:08:45;2.50;;;1.47;;
19213;SDS011;9741;51.020;5.304;2023-05-14T00:11:13;1.90;;;1.40;;
19213;SDS011;9741;51.020;5.304;2023-05-14T00:13:44;1.33;;;1.13;;
19213;SDS011;9741;51.020;5.304;2023-05-14T00:16:12;1.27;;;1.00;;
19213;SDS011;9741;51.020;5.304;2023-05-14T00:18:44;1.63;;;1.37;;
19213;SDS011;9741;51.020;5.304;2023-05-14T00:21:11;1.53;;;1.37;;
19213;SDS011;9741;51.020;5.304;2023-05-14T00:23:39;1.03;;;0.93;;
19213;SDS011;9741;51.020;5.304;2023-05-14T00:26:07;1.07;;;0.97;;
19213;SDS011;9741;51.020;5.304;2023-05-14T00:28:38;1.30;;;1.20;;
19213;SDS011;9741;51.020;5.304;2023-05-14T00:31:06;1.10;;;1.00;;
19213;SDS011;9741;51.020;5.304;2023-05-14T00:33:34;1.03;;;0.90;;
19213;SDS011;9741;51.020;5.304;2023-05-14T00:36:04;1.30;;;1.20;;
19213;SDS011;9741;51.020;5.304;2023-05-14T00:38:32;1.23;;;1.17;;
19213;SDS011;9741;51.020;5.304;2023-05-14T00:41:04;2.10;;;1.90;;
19213;SDS011;9741;51.020;5.304;2023-05-14T00:43:32;1.77;;;1.53;;
19213;SDS011;9741;51.020;5.304;2023-05-14T00:46:01;1.87;;;1.63;;
19213;SDS011;9741;51.020;5.304;2023-05-14T00:48:29;1.53;;;1.43;;
19213;SDS011;9741;51.020;5.304;2023-05-14T00:50:56;1.67;;;1.57;;
19213;SDS011;9741;51.020;5.304;2023-05-14T00:53:26;1.57;;;1.47;;
19213;SDS011;9741;51.020;5.304;2023-05-14T00:55:53;2.37;;;1.93;;
19213;SDS011;9741;51.020;5.304;2023-05-14T00:58:20;1.70;;;1.60;;
19213;SDS011;9741;51.020;5.304;2023-05-14T01:00:49;1.67;;;1.47;;
19213;SDS011;9741;51.020;5.304;2023-05-14T01:03:17;1.73;;;1.33;;
19213;SDS011;9741;51.020;5.304;2023-05-14T01:05:47;1.80;;;1.67;;
19213;SDS011;9741;51.020;5.304;2023-05-14T01:08:31;2.30;;;1.70;;
19213;SDS011;9741;51.020;5.304;2023-05-14T01:11:09;1.43;;;1.20;;
19213;SDS011;9741;51.020;5.304;2023-05-14T01:13:45;1.63;;;1.27;;
19213;SDS011;9741;51.020;5.304;2023-05-14T01:16:20;1.73;;;1.63;;
19213;SDS011;9741;51.020;5.304;2023-05-14T01:18:54;1.30;;;1.20;;
19213;SDS011;9741;51.020;5.304;2023-05-14T01:21:33;1.20;;;1.07;;
19213;SDS011;9741;51.020;5.304;2023-05-14T01:24:05;0.87;;;0.87;;
19213;SDS011;9741;51.020;5.304;2023-05-14T01:26:34;1.90;;;1.23;;
19213;SDS011;9741;51.020;5.304;2023-05-14T01:29:12;1.37;;;1.27;;
19213;SDS011;9741;51.020;5.304;2023-05-14T01:31:49;1.30;;;1.17;;
19213;SDS011;9741;51.020;5.304;2023-05-14T01:34:20;1.00;;;1.00;;
19213;SDS011;9741;51.020;5.304;2023-05-14T01:36:52;3.13;;;2.00;;
19213;SDS011;9741;51.020;5.304;2023-05-14T01:39:22;1.80;;;1.57;;
19213;SDS011;9741;51.020;5.304;2023-05-14T01:41:52;2.10;;;1.90;;
19213;SDS011;9741;51.020;5.304;2023-05-14T01:44:23;1.83;;;1.10;;
19213;SDS011;9741;51.020;5.304;2023-05-14T01:46:51;4.70;;;1.63;;
19213;SDS011;9741;51.020;5.304;2023-05-14T01:49:19;2.00;;;1.80;;
19213;SDS011;9741;51.020;5.304;2023-05-14T01:51:47;4.33;;;2.60;;
19213;SDS011;9741;51.020;5.304;2023-05-14T01:54:17;2.30;;;2.10;;
19213;SDS011;9741;51.020;5.304;2023-05-14T01:56:44;3.07;;;2.20;;
19213;SDS011;9741;51.020;5.304;2023-05-14T01:59:12;2.50;;;1.30;;
19213;SDS011;9741;51.020;5.304;2023-05-14T02:01:41;1.57;;;1.47;;
19213;SDS011;9741;51.020;5.304;2023-05-14T02:04:09;1.90;;;1.53;;
19213;SDS011;9741;51.020;5.304;2023-05-14T02:06:36;1.17;;;1.07;;
19213;SDS011;9741;51.020;5.304;2023-05-14T02:09:04;0.80;;;0.80;;
19213;SDS011;9741;51.020;5.304;2023-05-14T02:11:36;1.10;;;1.00;;
19213;SDS011;9741;51.020;5.304;2023-05-14T02:14:03;2.40;;;2.00;;
19213;SDS011;9741;51.020;5.304;2023-05-14T02:16:30;3.03;;;1.83;;
19213;SDS011;9741;51.020;5.304;2023-05-14T02:18:58;1.80;;;1.40;;
19213;SDS011;9741;51.020;5.304;2023-05-14T02:21:26;1.30;;;1.20;;
19213;SDS011;9741;51.020;5.304;2023-05-14T02:23:54;3.50;;;1.83;;
19213;SDS011;9741;51.020;5.304;2023-05-14T02:26:22;3.10;;;1.80;;
19213;SDS011;9741;51.020;5.304;2023-05-14T02:28:51;1.50;;;1.37;;
19213;SDS011;9741;51.020;5.304;2023-05-14T02:31:18;1.90;;;1.60;;
19213;SDS011;9741;51.020;5.304;2023-05-14T02:33:46;1.37;;;1.27;;
19213;SDS011;9741;51.020;5.304;2023-05-14T02:36:15;1.50;;;1.40;;
19213;SDS011;9741;51.020;5.304;2023-05-14T02:38:43;1.20;;;1.10;;
19213;SDS011;9741;51.020;5.304;2023-05-14T02:41:10;1.67;;;1.53;;
19213;SDS011;9741;51.020;5.304;2023-05-14T02:43:38;1.13;;;1.00;;
19213;SDS011;9741;51.020;5.304;2023-05-14T02:46:07;4.73;;;1.93;;
19213;SDS011;9741;51.020;5.304;2023-05-14T02:48:34;1.67;;;1.27;;
19213;SDS011;9741;51.020;5.304;2023-05-14T02:51:02;1.37;;;1.27;;
19213;SDS011;9741;51.020;5.304;2023-05-14T02:53:30;1.60;;;1.50;;
19213;SDS011;9741;51.020;5.304;2023-05-14T02:55:58;0.97;;;0.97;;
19213;SDS011;9741;51.020;5.304;2023-05-14T02:58:26;0.73;;;0.73;;
19213;SDS011;9741;51.020;5.304;2023-05-14T03:00:54;1.17;;;1.07;;
19213;SDS011;9741;51.020;5.304;2023-05-14T03:03:23;1.03;;;0.90;;
19213;SDS011;9741;51.020;5.304;2023-05-14T03:05:53;1.53;;;1.43;;
19213;SDS011;9741;51.020;5.304;2023-05-14T03:08:20;1.67;;;1.47;;
19213;SDS011;9741;51.020;5.304;2023-05-14T03:10:48;1.60;;;1.37;;
19213;SDS011;9741;51.020;5.304;2023-05-14T03:13:16;1.50;;;1.13;;
19213;SDS011;9741;51.020;5.304;2023-05-14T03:15:46;2.03;;;1.27;;
19213;SDS011;9741;51.020;5.304;2023-05-14T03:18:14;1.53;;;1.43;;
19213;SDS011;9741;51.020;5.304;2023-05-14T03:20:43;1.43;;;1.10;;
19213;SDS011;9741;51.020;5.304;2023-05-14T03:23:11;0.90;;;0.90;;
19213;SDS011;9741;51.020;5.304;2023-05-14T03:25:40;1.47;;;1.37;;
19213;SDS011;9741;51.020;5.304;2023-05-14T03:28:08;1.30;;;1.20;;
19213;SDS011;9741;51.020;5.304;2023-05-14T03:30:35;1.23;;;0.83;;
19213;SDS011;9741;51.020;5.304;2023-05-14T03:33:03;0.43;;;0.43;;
19213;SDS011;9741;51.020;5.304;2023-05-14T03:35:31;1.83;;;1.40;;
19213;SDS011;9741;51.020;5.304;2023-05-14T03:38:02;2.13;;;1.47;;
19213;SDS011;9741;51.020;5.304;2023-05-14T03:40:30;1.17;;;0.87;;
19213;SDS011;9741;51.020;5.304;2023-05-14T03:42:58;0.83;;;0.83;;
19213;SDS011;9741;51.020;5.304;2023-05-14T03:45:27;1.53;;;1.40;;
19213;SDS011;9741;51.020;5.304;2023-05-14T03:47:55;2.80;;;2.13;;
19213;SDS011;9741;51.020;5.304;2023-05-14T03:50:24;1.60;;;1.23;;
19213;SDS011;9741;51.020;5.304;2023-05-14T03:52:54;9.70;;;1.30;;
19213;SDS011;9741;51.020;5.304;2023-05-14T03:55:23;1.90;;;1.27;;
19213;SDS011;9741;51.020;5.304;2023-05-14T03:57:51;2.80;;;1.30;;
19213;SDS011;9741;51.020;5.304;2023-05-14T04:00:18;1.90;;;1.60;;
19213;SDS011;9741;51.020;5.304;2023-05-14T04:02:46;1.73;;;1.63;;
19213;SDS011;9741;51.020;5.304;2023-05-14T04:05:14;1.67;;;1.47;;
19213;SDS011;9741;51.020;5.304;2023-05-14T04:07:44;1.33;;;1.23;;
19213;SDS011;9741;51.020;5.304;2023-05-14T04:10:12;1.17;;;1.07;;
19213;SDS011;9741;51.020;5.304;2023-05-14T04:12:41;1.70;;;1.60;;
19213;SDS011;9741;51.020;5.304;2023-05-14T04:15:10;6.30;;;2.63;;
19213;SDS011;9741;51.020;5.304;2023-05-14T04:17:38;3.90;;;2.00;;
19213;SDS011;9741;51.020;5.304;2023-05-14T04:20:07;1.53;;;1.43;;
19213;SDS011;9741;51.020;5.304;2023-05-14T04:22:35;2.40;;;2.20;;
19213;SDS011;9741;51.020;5.304;2023-05-14T04:25:03;1.30;;;1.20;;
19213;SDS011;9741;51.020;5.304;2023-05-14T04:27:31;4.77;;;1.97;;
19213;SDS011;9741;51.020;5.304;2023-05-14T04:30:06;2.53;;;1.73;;
19213;SDS011;9741;51.020;5.304;2023-05-14T04:32:35;4.23;;;1.40;;
19213;SDS011;9741;51.020;5.304;2023-05-14T04:35:03;2.27;;;1.37;;
19213;SDS011;9741;51.020;5.304;2023-05-14T04:37:32;1.87;;;1.70;;
19213;SDS011;9741;51.020;5.304;2023-05-14T04:40:01;1.47;;;1.27;;
19213;SDS011;9741;51.020;5.304;2023-05-14T04:42:32;2.27;;;1.87;;
19213;SDS011;9741;51.020;5.304;2023-05-14T04:44:59;1.60;;;1.40;;
19213;SDS011;9741;51.020;5.304;2023-05-14T04:47:31;3.20;;;2.57;;
19213;SDS011;9741;51.020;5.304;2023-05-14T04:49:59;1.93;;;1.40;;
19213;SDS011;9741;51.020;5.304;2023-05-14T04:52:27;0.90;;;0.90;;
19213;SDS011;9741;51.020;5.304;2023-05-14T04:54:55;1.47;;;1.37;;
19213;SDS011;9741;51.020;5.304;2023-05-14T04:57:25;1.27;;;1.13;;
19213;SDS011;9741;51.020;5.304;2023-05-14T04:59:54;2.43;;;1.80;;
19213;SDS011;9741;51.020;5.304;2023-05-14T05:02:23;3.27;;;2.30;;
19213;SDS011;9741;51.020;5.304;2023-05-14T05:04:55;3.33;;;1.73;;
19213;SDS011;9741;51.020;5.304;2023-05-14T05:07:25;3.37;;;2.30;;
19213;SDS011;9741;51.020;5.304;2023-05-14T05:09:53;6.50;;;3.20;;
19213;SDS011;9741;51.020;5.304;2023-05-14T05:12:21;6.03;;;4.73;;
19213;SDS011;9741;51.020;5.304;2023-05-14T05:14:54;5.83;;;3.97;;
19213;SDS011;9741;51.020;5.304;2023-05-14T05:17:21;4.90;;;3.00;;
19213;SDS011;9741;51.020;5.304;2023-05-14T05:19:50;4.90;;;3.33;;
19213;SDS011;9741;51.020;5.304;2023-05-14T05:22:19;9.07;;;3.87;;
19213;SDS011;9741;51.020;5.304;2023-05-14T05:24:50;8.63;;;4.30;;
19213;SDS011;9741;51.020;5.304;2023-05-14T05:27:18;6.47;;;4.80;;
19213;SDS011;9741;51.020;5.304;2023-05-14T05:29:47;6.50;;;3.40;;
19213;SDS011;9741;51.020;5.304;2023-05-14T05:32:15;5.53;;;4.57;;
19213;SDS011;9741;51.020;5.304;2023-05-14T05:34:42;10.33;;;5.10;;
19213;SDS011;9741;51.020;5.304;2023-05-14T05:37:10;5.87;;;3.63;;
19213;SDS011;9741;51.020;5.304;2023-05-14T05:39:40;9.83;;;4.97;;
19213;SDS011;9741;51.020;5.304;2023-05-14T05:42:13;6.27;;;4.73;;
19213;SDS011;9741;51.020;5.304;2023-05-14T05:44:41;5.43;;;3.33;;
19213;SDS011;9741;51.020;5.304;2023-05-14T05:47:09;5.93;;;4.63;;
19213;SDS011;9741;51.020;5.304;2023-05-14T05:49:40;4.17;;;3.50;;
19213;SDS011;9741;51.020;5.304;2023-05-14T05:52:08;5.57;;;4.77;;
19213;SDS011;9741;51.020;5.304;2023-05-14T05:54:36;6.60;;;5.03;;
19213;SDS011;9741;51.020;5.304;2023-05-14T05:57:05;7.03;;;4.30;;
19213;SDS011;9741;51.020;5.304;2023-05-14T05:59:36;4.15;;;3.63;;
19213;SDS011;9741;51.020;5.304;2023-05-14T06:02:04;6.15;;;4.25;;
19213;SDS011;9741;51.020;5.304;2023-05-14T06:04:33;7.25;;;5.28;;
19213;SDS011;9741;51.020;5.304;2023-05-14T06:07:01;12.70;;;5.13;;
19213;SDS011;9741;51.020;5.304;2023-05-14T06:09:28;6.43;;;3.95;;
19213;SDS011;9741;51.020;5.304;2023-05-14T06:11:56;10.20;;;4.30;;
19213;SDS011;9741;51.020;5.304;2023-05-14T06:14:24;5.90;;;4.88;;
19213;SDS011;9741;51.020;5.304;2023-05-14T06:16:54;9.10;;;4.22;;
19213;SDS011;9741;51.020;5.304;2023-05-14T06:19:22;7.25;;;4.18;;
19213;SDS011;9741;51.020;5.304;2023-05-14T06:21:58;4.40;;;4.00;;
19213;SDS011;9741;51.020;5.304;2023-05-14T06:24:26;6.75;;;4.72;;
19213;SDS011;9741;51.020;5.304;2023-05-14T06:26:53;6.15;;;4.38;;
19213;SDS011;9741;51.020;5.304;2023-05-14T06:29:21;6.82;;;3.95;;
19213;SDS011;9741;51.020;5.304;2023-05-14T06:31:50;8.50;;;4.80;;
19213;SDS011;9741;51.020;5.304;2023-05-14T06:34:20;7.32;;;4.18;;
19213;SDS011;9741;51.020;5.304;2023-05-14T06:36:48;3.22;;;2.92;;
19213;SDS011;9741;51.020;5.304;2023-05-14T06:39:15;6.65;;;3.20;;
19213;SDS011;9741;51.020;5.304;2023-05-14T06:41:43;4.95;;;4.35;;
19213;SDS011;9741;51.020;5.304;2023-05-14T06:44:11;7.38;;;3.95;;
19213;SDS011;9741;51.020;5.304;2023-05-14T06:46:38;4.82;;;3.15;;
19213;SDS011;9741;51.020;5.304;2023-05-14T06:49:08;3.95;;;3.58;;
19213;SDS011;9741;51.020;5.304;2023-05-14T06:51:35;6.80;;;3.25;;
19213;SDS011;9741;51.020;5.304;2023-05-14T06:54:06;5.38;;;3.42;;
19213;SDS011;9741;51.020;5.304;2023-05-14T06:56:37;4.07;;;3.10;;
19213;SDS011;9741;51.020;5.304;2023-05-14T06:59:05;4.35;;;3.13;;
19213;SDS011;9741;51.020;5.304;2023-05-14T07:01:33;7.18;;;3.28;;
19213;SDS011;9741;51.020;5.304;2023-05-14T07:04:00;4.15;;;3.67;;
19213;SDS011;9741;51.020;5.304;2023-05-14T07:06:29;8.73;;;5.20;;
19213;SDS011;9741;51.020;5.304;2023-05-14T07:08:58;6.70;;;3.97;;
19213;SDS011;9741;51.020;5.304;2023-05-14T07:11:26;2.53;;;2.33;;
19213;SDS011;9741;51.020;5.304;2023-05-14T07:13:55;7.53;;;4.03;;
19213;SDS011;9741;51.020;5.304;2023-05-14T07:16:22;4.90;;;3.08;;
19213;SDS011;9741;51.020;5.304;2023-05-14T07:18:50;5.65;;;3.42;;
19213;SDS011;9741;51.020;5.304;2023-05-14T07:21:20;6.70;;;3.95;;
19213;SDS011;9741;51.020;5.304;2023-05-14T07:23:49;6.53;;;3.70;;
19213;SDS011;9741;51.020;5.304;2023-05-14T07:26:19;6.78;;;3.85;;
19213;SDS011;9741;51.020;5.304;2023-05-14T07:28:49;7.25;;;3.55;;
19213;SDS011;9741;51.020;5.304;2023-05-14T07:31:17;3.40;;;3.10;;
19213;SDS011;9741;51.020;5.304;2023-05-14T07:33:46;4.47;;;3.28;;
19213;SDS011;9741;51.020;5.304;2023-05-14T07:36:14;4.97;;;3.83;;
19213;SDS011;9741;51.020;5.304;2023-05-14T07:38:42;5.00;;;3.28;;
19213;SDS011;9741;51.020;5.304;2023-05-14T07:41:14;4.75;;;3.50;;
19213;SDS011;9741;51.020;5.304;2023-05-14T07:43:44;7.25;;;3.67;;
19213;SDS011;9741;51.020;5.304;2023-05-14T07:46:13;6.00;;;3.13;;
19213;SDS011;9741;51.020;5.304;2023-05-14T07:48:43;6.22;;;4.72;;
19213;SDS011;9741;51.020;5.304;2023-05-14T07:51:13;9.18;;;3.92;;
19213;SDS011;9741;51.020;5.304;2023-05-14T07:53:41;8.00;;;4.05;;
19213;SDS011;9741;51.020;5.304;2023-05-14T07:56:10;5.03;;;4.18;;
19213;SDS011;9741;51.020;5.304;2023-05-14T07:58:42;7.20;;;3.70;;
19213;SDS011;9741;51.020;5.304;2023-05-14T08:01:11;7.70;;;4.65;;
19213;SDS011;9741;51.020;5.304;2023-05-14T08:03:39;6.60;;;4.55;;
19213;SDS011;9741;51.020;5.304;2023-05-14T08:06:10;5.13;;;2.90;;
19213;SDS011;9741;51.020;5.304;2023-05-14T08:09:13;4.50;;;4.03;;
19213;SDS011;9741;51.020;5.304;2023-05-14T08:11:54;6.82;;;3.15;;
19213;SDS011;9741;51.020;5.304;2023-05-14T08:14:44;3.97;;;3.58;;
19213;SDS011;9741;51.020;5.304;2023-05-14T08:17:38;5.85;;;3.80;;
19213;SDS011;9741;51.020;5.304;2023-05-14T08:20:17;6.75;;;4.25;;
19213;SDS011;9741;51.020;5.304;2023-05-14T08:23:02;5.68;;;3.63;;
19213;SDS011;9741;51.020;5.304;2023-05-14T08:25:42;6.05;;;3.95;;
19213;SDS011;9741;51.020;5.304;2023-05-14T08:28:55;13.80;;;3.22;;
19213;SDS011;9741;51.020;5.304;2023-05-14T08:31:26;5.25;;;2.97;;
19213;SDS011;9741;51.020;5.304;2023-05-14T08:33:58;6.43;;;4.03;;
19213;SDS011;9741;51.020;5.304;2023-05-14T08:36:26;3.85;;;3.03;;
19213;SDS011;9741;51.020;5.304;2023-05-14T08:38:55;7.30;;;3.85;;
19213;SDS011;9741;51.020;5.304;2023-05-14T08:41:27;4.57;;;3.65;;
19213;SDS011;9741;51.020;5.304;2023-05-14T08:44:05;6.13;;;4.25;;
19213;SDS011;9741;51.020;5.304;2023-05-14T08:46:40;4.57;;;2.88;;
19213;SDS011;9741;51.020;5.304;2023-05-14T08:49:14;4.97;;;3.75;;
19213;SDS011;9741;51.020;5.304;2023-05-14T08:51:46;5.07;;;3.95;;
19213;SDS011;9741;51.020;5.304;2023-05-14T08:54:16;5.80;;;3.63;;
19213;SDS011;9741;51.020;5.304;2023-05-14T08:56:48;11.88;;;3.08;;
19213;SDS011;9741;51.020;5.304;2023-05-14T08:59:17;4.60;;;2.97;;
19213;SDS011;9741;51.020;5.304;2023-05-14T09:01:47;5.78;;;3.75;;
19213;SDS011;9741;51.020;5.304;2023-05-14T09:04:22;7.40;;;3.88;;
19213;SDS011;9741;51.020;5.304;2023-05-14T09:06:51;5.80;;;4.18;;
19213;SDS011;9741;51.020;5.304;2023-05-14T09:09:20;5.25;;;3.47;;
19213;SDS011;9741;51.020;5.304;2023-05-14T09:11:48;4.25;;;3.75;;
19213;SDS011;9741;51.020;5.304;2023-05-14T09:14:21;5.72;;;2.85;;
19213;SDS011;9741;51.020;5.304;2023-05-14T09:16:50;8.88;;;3.25;;
19213;SDS011;9741;51.020;5.304;2023-05-14T09:19:18;5.20;;;3.63;;
19213;SDS011;9741;51.020;5.304;2023-05-14T09:21:48;6.80;;;2.67;;
19213;SDS011;9741;51.020;5.304;2023-05-14T09:24:18;6.90;;;2.80;;
19213;SDS011;9741;51.020;5.304;2023-05-14T09:26:48;4.47;;;2.72;;
19213;SDS011;9741;51.020;5.304;2023-05-14T09:29:16;4.13;;;2.97;;
19213;SDS011;9741;51.020;5.304;2023-05-14T09:31:51;4.28;;;3.35;;
19213;SDS011;9741;51.020;5.304;2023-05-14T09:34:23;3.83;;;3.08;;
19213;SDS011;9741;51.020;5.304;2023-05-14T09:36:53;3.55;;;2.88;;
19213;SDS011;9741;51.020;5.304;2023-05-14T09:39:21;5.85;;;2.92;;
19213;SDS011;9741;51.020;5.304;2023-05-14T09:41:52;4.22;;;3.10;;
19213;SDS011;9741;51.020;5.304;2023-05-14T09:44:21;4.45;;;3.08;;
19213;SDS011;9741;51.020;5.304;2023-05-14T09:46:55;3.53;;;3.15;;
19213;SDS011;9741;51.020;5.304;2023-05-14T09:49:22;4.05;;;3.00;;
19213;SDS011;9741;51.020;5.304;2023-05-14T09:51:51;5.00;;;3.20;;
19213;SDS011;9741;51.020;5.304;2023-05-14T09:54:21;4.95;;;2.97;;
19213;SDS011;9741;51.020;5.304;2023-05-14T09:56:52;5.93;;;3.83;;
19213;SDS011;9741;51.020;5.304;2023-05-14T09:59:20;4.65;;;2.38;;
19213;SDS011;9741;51.020;5.304;2023-05-14T10:01:57;4.60;;;3.45;;
19213;SDS011;9741;51.020;5.304;2023-05-14T10:04:26;3.58;;;2.97;;
19213;SDS011;9741;51.020;5.304;2023-05-14T10:06:54;5.40;;;3.95;;
19213;SDS011;9741;51.020;5.304;2023-05-14T10:09:23;7.05;;;3.47;;
19213;SDS011;9741;51.020;5.304;2023-05-14T10:11:56;4.40;;;3.17;;
19213;SDS011;9741;51.020;5.304;2023-05-14T10:14:28;5.35;;;2.95;;
19213;SDS011;9741;51.020;5.304;2023-05-14T10:17:05;7.35;;;3.95;;
19213;SDS011;9741;51.020;5.304;2023-05-14T10:19:46;5.00;;;2.50;;
19213;SDS011;9741;51.020;5.304;2023-05-14T10:22:21;3.85;;;2.53;;
19213;SDS011;9741;51.020;5.304;2023-05-14T10:24:52;6.53;;;3.92;;
19213;SDS011;9741;51.020;5.304;2023-05-14T10:27:24;3.70;;;2.30;;
19213;SDS011;9741;51.020;5.304;2023-05-14T10:29:57;7.45;;;3.08;;
19213;SDS011;9741;51.020;5.304;2023-05-14T10:32:28;3.60;;;2.95;;
19213;SDS011;9741;51.020;5.304;2023-05-14T10:34:59;3.67;;;2.80;;
19213;SDS011;9741;51.020;5.304;2023-05-14T10:37:40;4.97;;;3.45;;
19213;SDS011;9741;51.020;5.304;2023-05-14T10:40:09;4.38;;;2.38;;
19213;SDS011;9741;51.020;5.304;2023-05-14T10:42:39;4.22;;;2.53;;
19213;SDS011;9741;51.020;5.304;2023-05-14T10:45:11;3.10;;;2.55;;
19213;SDS011;9741;51.020;5.304;2023-05-14T10:47:42;5.10;;;3.45;;
19213;SDS011;9741;51.020;5.304;2023-05-14T10:50:12;5.82;;;3.10;;
19213;SDS011;9741;51.020;5.304;2023-05-14T10:52:41;7.75;;;3.40;;
19213;SDS011;9741;51.020;5.304;2023-05-14T10:55:11;4.57;;;2.17;;
19213;SDS011;9741;51.020;5.304;2023-05-14T10:57:42;2.67;;;2.10;;
19213;SDS011;9741;51.020;5.304;2023-05-14T11:00:14;4.95;;;2.63;;
19213;SDS011;9741;51.020;5.304;2023-05-14T11:02:44;2.58;;;2.38;;
19213;SDS011;9741;51.020;5.304;2023-05-14T11:05:12;4.05;;;2.95;;
19213;SDS011;9741;51.020;5.304;2023-05-14T11:07:42;2.88;;;2.47;;
19213;SDS011;9741;51.020;5.304;2023-05-14T11:10:13;2.53;;;2.25;;
19213;SDS011;9741;51.020;5.304;2023-05-14T11:12:43;3.30;;;2.40;;
19213;SDS011;9741;51.020;5.304;2023-05-14T11:15:16;2.72;;;2.35;;
19213;SDS011;9741;51.020;5.304;2023-05-14T11:17:52;4.60;;;2.20;;
19213;SDS011;9741;51.020;5.304;2023-05-14T11:20:19;2.25;;;2.03;;
19213;SDS011;9741;51.020;5.304;2023-05-14T11:22:47;6.07;;;2.70;;
19213;SDS011;9741;51.020;5.304;2023-05-14T11:25:16;2.22;;;1.92;;
19213;SDS011;9741;51.020;5.304;2023-05-14T11:27:46;2.50;;;1.80;;
19213;SDS011;9741;51.020;5.304;2023-05-14T11:30:16;2.15;;;1.63;;
19213;SDS011;9741;51.020;5.304;2023-05-14T11:32:46;5.05;;;2.28;;
19213;SDS011;9741;51.020;5.304;2023-05-14T11:35:16;4.03;;;2.13;;
19213;SDS011;9741;51.020;5.304;2023-05-14T11:37:48;5.80;;;2.42;;
19213;SDS011;9741;51.020;5.304;2023-05-14T11:40:19;2.67;;;2.30;;
19213;SDS011;9741;51.020;5.304;2023-05-14T11:42:49;5.25;;;2.53;;
19213;SDS011;9741;51.020;5.304;2023-05-14T11:45:23;3.05;;;2.15;;
19213;SDS011;9741;51.020;5.304;2023-05-14T11:47:52;3.60;;;2.30;;
19213;SDS011;9741;51.020;5.304;2023-05-14T11:50:22;2.25;;;1.50;;
19213;SDS011;9741;51.020;5.304;2023-05-14T11:52:54;1.88;;;1.75;;
19213;SDS011;9741;51.020;5.304;2023-05-14T11:55:23;1.45;;;1.35;;
19213;SDS011;9741;51.020;5.304;2023-05-14T11:57:52;3.17;;;2.13;;
19213;SDS011;9741;51.020;5.304;2023-05-14T12:00:21;11.95;;;2.22;;
19213;SDS011;9741;51.020;5.304;2023-05-14T12:02:49;5.03;;;1.80;;
19213;SDS011;9741;51.020;5.304;2023-05-14T12:05:22;5.97;;;2.00;;
19213;SDS011;9741;51.020;5.304;2023-05-14T12:07:49;1.40;;;1.27;;
19213;SDS011;9741;51.020;5.304;2023-05-14T12:10:17;1.80;;;1.52;;
19213;SDS011;9741;51.020;5.304;2023-05-14T12:12:46;3.25;;;1.30;;
19213;SDS011;9741;51.020;5.304;2023-05-14T12:15:14;2.03;;;1.77;;
19213;SDS011;9741;51.020;5.304;2023-05-14T12:17:51;1.63;;;1.52;;
19213;SDS011;9741;51.020;5.304;2023-05-14T12:20:26;1.40;;;1.23;;
19213;SDS011;9741;51.020;5.304;2023-05-14T12:22:56;2.53;;;1.75;;
19213;SDS011;9741;51.020;5.304;2023-05-14T12:25:24;1.35;;;1.25;;
19213;SDS011;9741;51.020;5.304;2023-05-14T12:27:52;2.65;;;1.98;;
19213;SDS011;9741;51.020;5.304;2023-05-14T12:30:20;3.50;;;1.55;;
19213;SDS011;9741;51.020;5.304;2023-05-14T12:32:52;2.28;;;1.67;;
19213;SDS011;9741;51.020;5.304;2023-05-14T12:35:27;3.33;;;1.83;;
19213;SDS011;9741;51.020;5.304;2023-05-14T12:37:55;6.95;;;2.05;;
19213;SDS011;9741;51.020;5.304;2023-05-14T12:40:22;3.10;;;1.92;;
19213;SDS011;9741;51.020;5.304;2023-05-14T12:42:51;2.10;;;1.80;;
19213;SDS011;9741;51.020;5.304;2023-05-14T12:45:22;2.42;;;1.65;;
19213;SDS011;9741;51.020;5.304;2023-05-14T12:47:52;2.08;;;1.90;;
19213;SDS011;9741;51.020;5.304;2023-05-14T12:50:24;2.17;;;1.50;;
19213;SDS011;9741;51.020;5.304;2023-05-14T12:52:51;2.92;;;2.00;;
19213;SDS011;9741;51.020;5.304;2023-05-14T12:55:23;0.98;;;0.90;;
19213;SDS011;9741;51.020;5.304;2023-05-14T12:57:51;1.95;;;1.75;;
19213;SDS011;9741;51.020;5.304;2023-05-14T13:00:20;1.75;;;1.65;;
19213;SDS011;9741;51.020;5.304;2023-05-14T13:02:49;3.00;;;2.35;;
19213;SDS011;9741;51.020;5.304;2023-05-14T13:05:18;2.10;;;1.70;;
19213;SDS011;9741;51.020;5.304;2023-05-14T13:07:50;3.00;;;1.30;;
19213;SDS011;9741;51.020;5.304;2023-05-14T13:10:21;2.13;;;1.85;;
19213;SDS011;9741;51.020;5.304;2023-05-14T13:12:51;2.22;;;1.80;;
19213;SDS011;9741;51.020;5.304;2023-05-14T13:15:23;2.25;;;2.05;;
19213;SDS011;9741;51.020;5.304;2023-05-14T13:17:51;1.65;;;1.30;;
19213;SDS011;9741;51.020;5.304;2023-05-14T13:20:29;5.20;;;1.60;;
19213;SDS011;9741;51.020;5.304;2023-05-14T13:22:59;1.17;;;1.08;;
19213;SDS011;9741;51.020;5.304;2023-05-14T13:25:26;1.42;;;0.88;;
19213;SDS011;9741;51.020;5.304;2023-05-14T13:27:54;2.40;;;1.92;;
19213;SDS011;9741;51.020;5.304;2023-05-14T13:30:24;1.30;;;1.13;;
19213;SDS011;9741;51.020;5.304;2023-05-14T13:32:52;1.48;;;1.38;;
19213;SDS011;9741;51.020;5.304;2023-05-14T13:35:21;2.40;;;1.05;;
19213;SDS011;9741;51.020;5.304;2023-05-14T13:37:51;1.90;;;1.67;;
19213;SDS011;9741;51.020;5.304;2023-05-14T13:40:20;2.47;;;1.90;;
19213;SDS011;9741;51.020;5.304;2023-05-14T13:42:50;1.35;;;1.23;;
19213;SDS011;9741;51.020;5.304;2023-05-14T13:45:18;2.28;;;1.50;;
19213;SDS011;9741;51.020;5.304;2023-05-14T13:47:48;1.85;;;1.65;;
19213;SDS011;9741;51.020;5.304;2023-05-14T13:50:18;0.90;;;0.88;;
19213;SDS011;9741;51.020;5.304;2023-05-14T13:52:48;3.08;;;1.58;;
19213;SDS011;9741;51.020;5.304;2023-05-14T13:55:17;1.67;;;1.58;;
19213;SDS011;9741;51.020;5.304;2023-05-14T13:57:49;2.38;;;2.00;;
19213;SDS011;9741;51.020;5.304;2023-05-14T14:00:17;4.03;;;1.98;;
19213;SDS011;9741;51.020;5.304;2023-05-14T14:02:45;2.72;;;1.73;;
19213;SDS011;9741;51.020;5.304;2023-05-14T14:05:12;3.28;;;1.75;;
19213;SDS011;9741;51.020;5.304;2023-05-14T14:07:40;2.22;;;2.00;;
19213;SDS011;9741;51.020;5.304;2023-05-14T14:10:08;2.00;;;1.20;;
19213;SDS011;9741;51.020;5.304;2023-05-14T14:12:42;1.83;;;1.33;;
19213;SDS011;9741;51.020;5.304;2023-05-14T14:15:12;2.50;;;1.50;;
19213;SDS011;9741;51.020;5.304;2023-05-14T14:17:40;1.63;;;1.48;;
19213;SDS011;9741;51.020;5.304;2023-05-14T14:20:09;2.67;;;1.98;;
19213;SDS011;9741;51.020;5.304;2023-05-14T14:22:37;1.63;;;1.52;;
19213;SDS011;9741;51.020;5.304;2023-05-14T14:25:09;1.48;;;1.35;;
19213;SDS011;9741;51.020;5.304;2023-05-14T14:27:39;1.60;;;1.50;;
19213;SDS011;9741;51.020;5.304;2023-05-14T14:30:08;1.48;;;1.35;;
19213;SDS011;9741;51.020;5.304;2023-05-14T14:32:42;2.38;;;1.60;;
19213;SDS011;9741;51.020;5.304;2023-05-14T14:35:11;2.97;;;1.52;;
19213;SDS011;9741;51.020;5.304;2023-05-14T14:37:40;1.88;;;1.35;;
19213;SDS011;9741;51.020;5.304;2023-05-14T14:40:11;2.15;;;1.35;;
19213;SDS011;9741;51.020;5.304;2023-05-14T14:42:41;2.55;;;1.60;;
19213;SDS011;9741;51.020;5.304;2023-05-14T14:45:11;1.98;;;1.25;;
19213;SDS011;9741;51.020;5.304;2023-05-14T14:47:41;3.72;;;1.27;;
19213;SDS011;9741;51.020;5.304;2023-05-14T14:50:10;3.22;;;1.70;;
19213;SDS011;9741;51.020;5.304;2023-05-14T14:52:37;2.03;;;1.63;;
19213;SDS011;9741;51.020;5.304;2023-05-14T14:55:08;2.35;;;1.77;;
19213;SDS011;9741;51.020;5.304;2023-05-14T14:57:36;2.28;;;1.90;;
19213;SDS011;9741;51.020;5.304;2023-05-14T15:00:06;2.25;;;1.60;;
19213;SDS011;9741;51.020;5.304;2023-05-14T15:02:35;2.05;;;1.50;;
19213;SDS011;9741;51.020;5.304;2023-05-14T15:05:06;1.25;;;1.15;;
19213;SDS011;9741;51.020;5.304;2023-05-14T15:07:35;2.03;;;1.75;;
19213;SDS011;9741;51.020;5.304;2023-05-14T15:10:06;1.75;;;1.65;;
19213;SDS011;9741;51.020;5.304;2023-05-14T15:12:34;1.25;;;1.15;;
19213;SDS011;9741;51.020;5.304;2023-05-14T15:15:02;1.48;;;1.23;;
19213;SDS011;9741;51.020;5.304;2023-05-14T15:17:34;4.55;;;1.50;;